Terminal Aerodrome Forecast
Issued by NWS Flagstaff, AZ

Home | Current Version | Previous Version | Text Only | Print | Product List | Glossary On
Versions: 1 2 3 4 5 6 7 8 9 10 11 12 13 14 15 16 17
000
FTUS45 KFGZ 311729
TAFINW
TAF
KINW 311729Z 3118/0118 11006KT P6SM SCT080
     FM312000 22010KT P6SM VCTS SCT080CB BKN140
      TEMPO 3120/3124 VRB25G35KT 4SM TSRA OVC050CB
     FM010400 VRB05KT P6SM BKN060=

USA.gov is the U.S. government's official web portal to all federal, state and local government web resources and services.